Terminal Aerodrome Forecast
Issued by NWS

Home | Current Version | Previous Version | Graphics & Text | Print | Product List | Glossary On
Versions: 1 2 3 4 5 6 7 8 9 10 11 12 13 14 15 16 17 18 19 20
000
FTUS43 KGRB 211945 AAA
TAFAUW
TAF AMD
KAUW 211945Z 2120/2218 24012G20KT P6SM VCSH BKN026 BKN035
     FM220000 25009G16KT P6SM VCSH SCT013 BKN025
     FM220700 26008G16KT P6SM VCSH OVC012
     FM221500 26010G19KT P6SM SCT017 BKN025=

USA.gov is the U.S. government's official web portal to all federal, state and local government web resources and services.